Accueil
METAR-TAF:

METAR-TAF

Aéroports :

Annecy, France

Aéroport d'Annecy Haute-Savoie Mont-Blanc

latitude: 45-55-45N, longitude: 006-05-56E, altitude: 463 m

Observation

Le bulletin a été fait il y a 34 minutes, à 03:00 UTC
Vent 2 kt de nord/nord-est
Température 8°C
Humidité 81%
Pression 1015 hPa
Visibilité 10 km ou plus
pas de nuages en-dessous de 1500 mètres et pas de cumulonimbus.

METAR: LFLP 190300Z AUTO 03002KT CAVOK 08/05 Q1015 NOSIG

Heure: 05:34 (03:34 UTC)

Prévision

Le bulletin a été fait il y a 1 heure et 34 minutes, à 02:00 UTC
Prévision valable du 19 à 03 UTC au 20 à 03 UTC
Vent 3 kt de direction variable
Visibilité 10 km ou plus
pas de nuages en-dessous de 1500 mètres et pas de cumulonimbus.
Temporairement
du 19 à 03 UTC au 19 à 06 UTC
Nuages épars à une hauteur de 2000 ft

TAF: LFLP 190200Z 1903/2003 VRB03KT CAVOK TEMPO 1903/1906 SCT020

Observations et prévisions météorologiques de plus de 4000 aéroports (messages METAR et TAF).

Les stations disponibles sont représentées par des disques jaunes et rouges sur la carte.

Passer la souris dessus pour voir le nom de la station.

Cliquer dessus pour voir les observations et prévisions météorologiques.

Pour changer de carte: cliquez sur les boutons verts avec une croix noire pour zoomer, sur le bouton vert avec un tiret pour effectuer un zoom arrière, ou sur les flèches vertes pour les cartes adjacentes.


METAR-TAF: